Big Bend National Park, TX

07:04 AM CDT del 27 Aprile 2015 (GMT -0500)
RAWS | | Change Station
CLOSE
Current Station
Stazione meteo personale
Location: Big Bend National Park, TX
Altitudine: 3750 ft
Stazioni meteo nelle vicinanze

Alt. 3750 ft 29.33 °N, 103.21 °W | Updated 26 minutes ago

Sereno
Sereno
57 °F
Sembra 57 °F
N
9
Vento Variabile Vento da Ovest
Gusts 12.0 mph

Oggi
Massima -- | Minima -- °F
--% Possibilità di precip.
Ieri
Massima -- | Minima -- °F
Precip. -- in
7:14 AM 8:26 PM
Gobba a ponente, 64% visible
Pressione 29.85 in
Visibilità 10.0 miglia
Nuvole Sereno
Punto di rugiada 29 °F
Umidità 34%
Piovosità in
Spessore del manto nevoso Non disponibile.
Raggi UV 0 fuori da 12
Polline 8.00 fuori da 12
Qualità dell'aria Non disponibile.
Flu Activity Local Activity
METAR KPRS 271155Z AUTO 00000KT 10SM CLR 12/00 A2985 RMK AO2 T01231001 10176 20116

More Conditions Fewer Conditions

Pressione 29.85 in
Visibilità 10.0 miglia
Nuvole Sereno
Punto di rugiada 29 °F
Umidità 34%
Piovosità in
Spessore del manto nevoso Non disponibile.
Raggi UV 0 fuori da 12
Polline 8.00 fuori da 12
Qualità dell'aria Non disponibile.
Flu Activity Local Activity
METAR KPRS 271155Z AUTO 00000KT 10SM CLR 12/00 A2985 RMK AO2 T01231001 10176 20116

More Conditions Fewer Conditions

10-Day Weather Forecast

Almanac

Astronomia

Apr. 27, 2015 Alba Tramonto
Ora attuale
Crepuscolo civile
Crepuscolo nautico
Crepuscolo astronomico
Luna
Estensione della luce visibile
Lunghezza del giorno
Tomorrow will be .
, % of the Moon is Illuminated

Gli estremi di oggi

State Highs State Lows

Community

WunderPhotos

Upload Photos

1,817,284 foto caricate!

WunderBlogs® & News

Nearby

Qualità dell'aria

  Qualità dell'aria Indice AQ Inquinante
Not available.

Profondità neve

Stazione Profondità Altitudine

Attività sismica

Città  Distanza Mag. Data & Ora
Minimo Magnitudo Mostrato è 2.5.

Temperature delle acque costiere

Località Temperatura

Stations

Stazioni meteo nelle vicinanze

Ubicazione della stazione Temp. Raffreddamento del vento Punto di rugiada Umidità Vento Precip. Alt. Aggiornato Tipo